Time;durP1;ratioP1;P1;durP2;ratioP2;P2;SDS_P1;SDS_P2;PMS_P1;PMS_P2;Temp;Humidity;BMP_temperature;BMP_pressure;BME280_temperature;BME280_humidity;BME280_pressure;Samples;Min_cycle;Max_cycle;Signal;HPM_P1;HPM_P2
2022/12/01 00:01:19;;;;;;;12.52;11.23;;;19.40;57.40;;;;;;5072433;28;43790;-60
2022/12/01 00:03:46;;;;;;;12.57;11.27;;;19.40;57.40;;;;;;5075864;27;43966;-60
2022/12/01 00:06:17;;;;;;;13.80;12.40;;;19.40;57.40;;;;;;5071812;28;43461;-60
2022/12/01 00:11:33;;;;;;;13.30;11.90;;;19.40;57.50;;;;;;5076749;27;44682;-60
2022/12/01 00:14:01;;;;;;;12.15;10.95;;;19.40;57.50;;;;;;5070912;28;44386;-60
2022/12/01 00:16:29;;;;;;;13.35;11.95;;;19.30;57.50;;;;;;5072554;27;43479;-60
2022/12/01 00:18:57;;;;;;;12.90;11.60;;;19.30;57.60;;;;;;5081098;27;43541;-60
2022/12/01 00:21:25;;;;;;;12.82;11.52;;;19.30;57.60;;;;;;5069465;28;44678;-60
2022/12/01 00:23:55;;;;;;;13.75;12.35;;;19.20;57.60;;;;;;5071374;28;43697;-60
2022/12/01 00:26:24;;;;;;;13.98;12.38;;;19.20;57.50;;;;;;5073840;27;43343;-60
2022/12/01 00:28:54;;;;;;;13.40;12.05;;;19.20;57.50;;;;;;5071643;27;43593;-60
2022/12/01 00:31:22;;;;;;;13.60;12.20;;;19.20;57.60;;;;;;5069762;28;44646;-60
2022/12/01 00:33:50;;;;;;;13.52;12.13;;;19.20;57.60;;;;;;5071602;28;43638;-60
2022/12/01 00:36:18;;;;;;;12.75;11.45;;;19.20;57.60;;;;;;5074038;27;43417;-60
2022/12/01 00:38:46;;;;;;;13.55;12.15;;;19.20;57.60;;;;;;5073553;27;43584;-60
2022/12/01 00:41:13;;;;;;;13.55;12.18;;;19.20;57.60;;;;;;5072553;28;44637;-60
2022/12/01 00:43:41;;;;;;;13.63;12.32;;;19.20;57.50;;;;;;5075728;28;43813;-60
2022/12/01 00:46:08;;;;;;;14.07;12.68;;;19.20;57.60;;;;;;5077536;27;43393;-60
2022/12/01 00:48:36;;;;;;;13.95;12.52;;;19.20;57.60;;;;;;5076411;27;43444;-60
2022/12/01 00:51:03;;;;;;;12.50;11.25;;;19.20;57.70;;;;;;5079003;27;43787;-60
2022/12/01 00:53:31;;;;;;;13.05;11.75;;;19.20;57.70;;;;;;5075699;28;43455;-60
2022/12/01 00:55:59;;;;;;;13.45;12.05;;;19.10;57.50;;;;;;5076869;27;43498;-60
2022/12/01 00:58:27;;;;;;;13.23;11.82;;;19.10;57.60;;;;;;5074531;27;43485;-60
2022/12/01 01:00:59;;;;;;;13.25;11.95;;;19.10;57.60;;;;;;5079931;28;43912;-60
2022/12/01 01:03:27;;;;;;;13.95;12.48;;;19.10;57.70;;;;;;5075618;27;44344;-60
2022/12/01 01:05:55;;;;;;;12.98;11.68;;;19.10;57.70;;;;;;5077106;27;43454;-60
2022/12/01 01:08:22;;;;;;;13.27;11.98;;;19.10;57.70;;;;;;5072792;28;43634;-60
2022/12/01 01:10:50;;;;;;;13.25;11.95;;;19.10;57.70;;;;;;5072920;28;44658;-60
2022/12/01 01:13:17;;;;;;;14.05;12.70;;;19.10;57.70;;;;;;5075948;28;43647;-60
2022/12/01 01:15:45;;;;;;;14.43;12.93;;;19.10;57.70;;;;;;5074796;28;43478;-60
2022/12/01 01:18:12;;;;;;;14.23;12.73;;;19.00;57.70;;;;;;5081566;27;43467;-60
2022/12/01 01:20:40;;;;;;;13.75;12.45;;;19.10;57.80;;;;;;5072655;28;44634;-60
2022/12/01 01:23:07;;;;;;;14.25;12.55;;;19.00;57.70;;;;;;5075509;28;43419;-60
2022/12/01 01:25:35;;;;;;;13.52;12.13;;;19.00;57.70;;;;;;5076876;27;43450;-60
2022/12/01 01:28:02;;;;;;;13.50;12.20;;;19.00;57.70;;;;;;5073037;28;43419;-60
2022/12/01 01:30:30;;;;;;;13.95;12.55;;;19.00;57.70;;;;;;5071388;28;44690;-60
2022/12/01 01:32:58;;;;;;;13.98;12.48;;;19.00;57.70;;;;;;5076082;28;43844;-60
2022/12/01 01:35:25;;;;;;;13.52;12.23;;;19.00;57.70;;;;;;5074424;27;43457;-60
2022/12/01 01:37:53;;;;;;;13.95;12.55;;;19.00;57.70;;;;;;5071783;28;43529;-60
2022/12/01 01:40:20;;;;;;;14.25;12.75;;;19.00;57.70;;;;;;5072604;28;44799;-60
2022/12/01 01:42:48;;;;;;;15.18;12.93;;;19.00;57.70;;;;;;5075723;28;43706;-60
2022/12/01 01:45:28;;;;;;;13.85;12.45;;;19.00;57.70;;;;;;5075803;27;43481;-60
2022/12/01 01:47:59;;;;;;;14.20;12.70;;;19.00;57.70;;;;;;5073268;28;43426;-60
2022/12/01 01:50:27;;;;;;;13.88;12.43;;;19.00;57.70;;;;;;5073147;27;45003;-60
2022/12/01 01:53:00;;;;;;;14.00;12.15;;;19.00;57.70;;;;;;5083843;27;43641;-60
2022/12/01 01:55:33;;;;;;;14.00;12.50;;;18.90;57.60;;;;;;5080926;27;43465;-60
2022/12/01 01:58:03;;;;;;;15.00;12.75;;;18.90;57.70;;;;;;5064445;28;44341;-60
2022/12/01 02:00:31;;;;;;;14.40;12.93;;;18.90;57.70;;;;;;5067793;28;44680;-60
2022/12/01 02:02:59;;;;;;;14.02;12.55;;;18.90;57.80;;;;;;5067419;27;43729;-60
2022/12/01 02:05:31;;;;;;;14.02;12.63;;;18.90;57.70;;;;;;5063240;27;43459;-60
2022/12/01 02:08:00;;;;;;;14.57;13.07;;;18.90;57.70;;;;;;5065040;28;43490;-60
2022/12/01 02:11:03;;;;;;;12.75;11.43;;;18.90;57.80;;;;;;5063945;28;43902;-60
2022/12/01 02:13:49;;;;;;;13.70;12.30;;;18.90;57.70;;;;;;5062291;28;43395;-60
2022/12/01 02:16:35;;;;;;;13.82;12.43;;;18.90;57.80;;;;;;5064731;28;43467;-60
2022/12/01 02:19:23;;;;;;;14.15;12.75;;;18.90;57.80;;;;;;5064532;28;43474;-60
2022/12/01 02:22:22;;;;;;;13.90;12.40;;;18.90;57.80;;;;;;5064189;28;43802;-60
2022/12/01 02:25:20;;;;;;;14.05;12.55;;;18.80;57.80;;;;;;5064866;28;43413;-60
2022/12/01 02:28:02;;;;;;;14.02;12.52;;;18.80;57.80;;;;;;5063787;28;43437;-60
2022/12/01 02:30:52;;;;;;;14.57;13.07;;;18.80;57.80;;;;;;5063673;28;43517;-60
2022/12/01 02:34:14;;;;;;;14.13;12.73;;;18.80;57.80;;;;;;5063586;28;44965;-60
2022/12/01 02:37:00;;;;;;;13.52;12.13;;;18.80;57.80;;;;;;5050682;28;43425;-60
2022/12/01 02:39:30;;;;;;;13.65;12.23;;;18.80;57.90;;;;;;5063720;28;43535;-60
2022/12/01 02:42:08;;;;;;;15.23;13.63;;;18.80;57.90;;;;;;5063708;28;43501;-60
2022/12/01 02:44:43;;;;;;;14.30;12.80;;;18.80;57.80;;;;;;5064247;28;44696;-60
2022/12/01 02:47:14;;;;;;;14.40;12.90;;;18.80;57.90;;;;;;5063211;28;44022;-60
2022/12/01 02:49:54;;;;;;;14.77;13.27;;;18.80;57.80;;;;;;5063479;28;43452;-60
2022/12/01 02:52:23;;;;;;;14.35;12.95;;;18.80;57.80;;;;;;5064354;28;43507;-60
2022/12/01 02:54:52;;;;;;;13.88;12.48;;;18.80;57.80;;;;;;5062398;28;44936;-60
2022/12/01 02:57:23;;;;;;;14.55;13.05;;;18.70;57.80;;;;;;5063593;28;43940;-60
2022/12/01 02:59:54;;;;;;;14.02;12.63;;;18.70;57.80;;;;;;5063244;28;43465;-60
2022/12/01 03:02:42;;;;;;;13.63;12.23;;;18.70;57.80;;;;;;5076858;28;43600;-60
2022/12/01 03:05:45;;;;;;;13.73;12.32;;;18.70;57.80;;;;;;5063082;28;45112;-60
2022/12/01 03:08:28;;;;;;;14.73;13.23;;;18.70;57.90;;;;;;5042735;27;43462;-60
2022/12/01 03:10:57;;;;;;;13.80;12.40;;;18.70;57.90;;;;;;5064198;28;43420;-60
2022/12/01 03:13:47;;;;;;;15.70;14.00;;;18.70;57.90;;;;;;5063259;28;43621;-60
2022/12/01 03:16:30;;;;;;;13.98;12.57;;;18.70;57.80;;;;;;5062473;28;44106;-60
2022/12/01 03:19:39;;;;;;;13.70;12.30;;;18.70;57.90;;;;;;5063113;28;43968;-60
2022/12/01 03:22:11;;;;;;;13.73;12.32;;;18.70;57.90;;;;;;5051288;28;43447;-60
2022/12/01 03:24:44;;;;;;;13.88;12.48;;;18.70;58.00;;;;;;5072971;28;43537;-60
2022/12/01 03:27:13;;;;;;;13.80;12.40;;;18.60;57.90;;;;;;5063242;28;43865;-60
2022/12/01 03:29:48;;;;;;;13.82;12.30;;;18.70;57.90;;;;;;5063114;28;44001;-60
2022/12/01 03:32:47;;;;;;;13.90;12.57;;;18.60;57.90;;;;;;5063188;28;43395;-60
2022/12/01 03:35:23;;;;;;;13.80;12.40;;;18.60;57.90;;;;;;5077558;28;43435;-60
2022/12/01 03:37:59;;;;;;;14.68;13.23;;;18.60;57.90;;;;;;5070671;27;44948;-60
2022/12/01 03:40:30;;;;;;;13.93;12.52;;;18.60;57.90;;;;;;5062836;28;43789;-60
2022/12/01 03:43:00;;;;;;;13.82;12.43;;;18.60;58.00;;;;;;5063138;28;43435;-60
2022/12/01 03:46:00;;;;;;;13.80;12.23;;;18.60;58.00;;;;;;5062959;28;43546;-60
2022/12/01 03:48:28;;;;;;;13.43;12.05;;;18.60;58.60;;;;;;5062822;28;45134;-60
2022/12/01 03:51:02;;;;;;;13.95;12.55;;;18.60;58.00;;;;;;5076463;28;44149;-60
2022/12/01 03:53:54;;;;;;;14.07;12.68;;;18.60;58.00;;;;;;5078291;27;43376;-60
2022/12/01 03:56:24;;;;;;;;;;;18.60;57.90;;;;;;5062593;28;43436;-60
2022/12/01 03:58:55;;;;;;;13.55;12.15;;;18.50;57.90;;;;;;5063922;28;44666;-60
2022/12/01 04:01:23;;;;;;;13.88;12.48;;;18.50;58.00;;;;;;5069181;28;43823;-60
2022/12/01 04:03:50;;;;;;;13.25;11.95;;;18.50;58.00;;;;;;5061635;28;43525;-60
2022/12/01 04:06:18;;;;;;;13.55;12.15;;;18.50;58.00;;;;;;5060493;28;43427;-60
2022/12/01 04:08:45;;;;;;;13.85;12.38;;;18.50;57.90;;;;;;5061749;28;45018;-60
2022/12/01 04:13:59;;;;;;;13.30;12.00;;;18.50;57.90;;;;;;5071340;28;43386;-60
2022/12/01 04:16:26;;;;;;;13.65;12.25;;;18.50;57.90;;;;;;5067125;27;43948;-60
2022/12/01 04:18:54;;;;;;;12.95;11.65;;;18.50;58.00;;;;;;5060746;28;44714;-60
2022/12/01 04:21:21;;;;;;;12.75;11.50;;;18.50;57.90;;;;;;5061542;28;43984;-60
2022/12/01 04:24:01;;;;;;;13.23;11.88;;;18.50;57.90;;;;;;5071752;28;43374;-60
2022/12/01 04:26:33;;;;;;;13.10;11.70;;;18.50;57.90;;;;;;5080590;27;43345;-60
2022/12/01 04:29:06;;;;;;;12.85;11.55;;;18.50;57.90;;;;;;5081182;27;44864;-60
2022/12/01 04:31:33;;;;;;;12.52;11.15;;;18.50;57.90;;;;;;5081551;27;43684;-60
2022/12/01 04:34:01;;;;;;;12.43;11.13;;;18.50;57.90;;;;;;5081636;27;43332;-60
2022/12/01 04:36:31;;;;;;;12.30;11.05;;;18.50;58.00;;;;;;5081738;27;43422;-60
2022/12/01 04:38:59;;;;;;;11.88;10.75;;;18.40;57.90;;;;;;5067441;28;43979;-60
2022/12/01 04:41:27;;;;;;;11.48;10.38;;;18.50;58.00;;;;;;5080891;27;43700;-60
2022/12/01 04:43:55;;;;;;;11.73;10.52;;;18.50;58.00;;;;;;5081904;27;43462;-60
2022/12/01 04:46:23;;;;;;;10.98;9.98;;;18.40;57.90;;;;;;5081418;27;44078;-60
2022/12/01 04:48:51;;;;;;;11.02;9.93;;;18.40;57.90;;;;;;5081252;27;45151;-60
2022/12/01 04:51:20;;;;;;;10.98;9.88;;;18.40;57.90;;;;;;5081332;27;44049;-60
2022/12/01 04:53:48;;;;;;;11.10;9.80;;;18.40;57.90;;;;;;5080907;27;43470;-60
2022/12/01 04:56:16;;;;;;;10.85;9.75;;;18.40;58.00;;;;;;5081151;27;43974;-60
2022/12/01 04:58:44;;;;;;;10.88;9.77;;;18.40;57.90;;;;;;5080958;27;44688;-60
2022/12/01 05:01:13;;;;;;;9.68;8.77;;;18.30;57.90;;;;;;5080194;27;44018;-60
2022/12/01 05:03:43;;;;;;;10.20;9.05;;;18.40;57.90;;;;;;5081598;27;43336;-60
2022/12/01 05:06:17;;;;;;;10.35;9.35;;;18.40;57.90;;;;;;5080042;27;43607;-60
2022/12/01 05:08:44;;;;;;;9.95;9.05;;;18.40;57.90;;;;;;5068428;28;43876;-60
2022/12/01 05:11:15;;;;;;;9.95;8.95;;;18.30;57.90;;;;;;5079458;28;43988;-60
2022/12/01 05:13:44;;;;;;;10.02;9.13;;;18.30;57.90;;;;;;5081144;27;43391;-60
2022/12/01 05:16:21;;;;;;;9.25;8.45;;;18.30;57.90;;;;;;5064963;28;43515;-60
2022/12/01 05:18:50;;;;;;;9.95;9.05;;;18.30;57.90;;;;;;5081020;27;43986;-60
2022/12/01 05:21:17;;;;;;;9.68;8.65;;;18.30;57.80;;;;;;5080629;28;43800;-60
2022/12/01 05:23:45;;;;;;;9.25;8.35;;;18.30;57.90;;;;;;5078634;27;43418;-60
2022/12/01 05:26:12;;;;;;;9.07;8.18;;;18.30;57.90;;;;;;5063620;28;43462;-61
2022/12/01 05:28:41;;;;;;;9.40;8.52;;;18.30;57.90;;;;;;5063765;28;44744;-59
2022/12/01 05:31:08;;;;;;;8.88;8.00;;;18.30;57.90;;;;;;5074525;28;43946;-59
2022/12/01 05:33:36;;;;;;;8.40;7.57;;;18.30;57.80;;;;;;5071507;28;43421;-60
2022/12/01 05:36:03;;;;;;;8.73;7.93;;;18.30;57.80;;;;;;5064264;28;43472;-59
2022/12/01 05:38:31;;;;;;;8.60;7.80;;;18.30;57.80;;;;;;5071997;28;45013;-59
2022/12/01 05:40:58;;;;;;;8.43;7.63;;;18.30;57.80;;;;;;5064665;28;43984;-59
2022/12/01 05:43:26;;;;;;;8.45;7.65;;;18.30;57.90;;;;;;5078914;28;43442;-59
2022/12/01 05:45:56;;;;;;;7.93;7.22;;;18.30;57.80;;;;;;5064421;28;43419;-60
2022/12/01 05:48:25;;;;;;;8.18;7.38;;;18.20;57.80;;;;;;5063643;28;45059;-60
2022/12/01 05:50:52;;;;;;;8.25;7.45;;;18.20;57.80;;;;;;5063383;28;43649;-59
2022/12/01 05:53:20;;;;;;;7.57;6.88;;;18.20;57.80;;;;;;5065745;28;43433;-59
2022/12/01 05:55:54;;;;;;;7.68;6.97;;;18.20;57.80;;;;;;5084470;27;43484;-59
2022/12/01 05:58:22;;;;;;;7.45;6.65;;;18.20;57.90;;;;;;5080306;27;44780;-60
2022/12/01 06:00:49;;;;;;;7.05;6.32;;;18.20;57.90;;;;;;5083774;27;43474;-60
2022/12/01 06:03:16;;;;;;;7.32;6.63;;;18.20;57.80;;;;;;5075137;27;43530;-59
2022/12/01 06:05:44;;;;;;;6.82;6.22;;;18.20;57.90;;;;;;5081590;27;43589;-60
2022/12/01 06:08:11;;;;;;;7.20;6.50;;;18.20;57.80;;;;;;5074177;27;44624;-60
2022/12/01 06:10:39;;;;;;;6.90;6.30;;;18.20;57.90;;;;;;5083809;27;44082;-60
2022/12/01 06:13:07;;;;;;;6.95;6.25;;;18.20;57.80;;;;;;5081478;27;43481;-59
2022/12/01 06:15:34;;;;;;;7.30;6.60;;;18.10;57.90;;;;;;5082084;27;43547;-59
2022/12/01 06:18:02;;;;;;;5.95;5.45;;;18.20;57.80;;;;;;5080832;28;44696;-60
2022/12/01 06:20:29;;;;;;;6.38;5.78;;;18.10;57.80;;;;;;5083041;27;43578;-60
2022/12/01 06:22:58;;;;;;;6.68;6.03;;;18.10;57.80;;;;;;5075118;27;43439;-60
2022/12/01 06:25:25;;;;;;;6.20;5.60;;;18.10;57.80;;;;;;5077988;28;43415;-60
2022/12/01 06:27:57;;;;;;;5.93;5.43;;;18.10;57.70;;;;;;5070517;27;44790;-59
2022/12/01 06:30:25;;;;;;;6.75;5.93;;;18.10;57.70;;;;;;5072542;28;44477;-60
2022/12/01 06:32:52;;;;;;;6.65;6.05;;;18.10;57.70;;;;;;5070949;28;43404;-59
2022/12/01 06:35:20;;;;;;;6.28;5.68;;;18.10;57.70;;;;;;5076699;28;43412;-60
2022/12/01 06:37:47;;;;;;;6.03;5.50;;;18.10;57.70;;;;;;5078251;27;43795;-60
2022/12/01 06:40:15;;;;;;;6.05;5.55;;;18.10;57.70;;;;;;5072584;27;43680;-60
2022/12/01 06:42:42;;;;;;;6.43;5.82;;;18.10;57.70;;;;;;5071872;28;43499;-60
2022/12/01 06:45:10;;;;;;;5.70;5.20;;;18.10;57.70;;;;;;5081375;27;43583;-60
2022/12/01 06:47:38;;;;;;;5.93;5.25;;;18.10;57.80;;;;;;5068985;27;44782;-60
2022/12/01 06:50:08;;;;;;;5.88;5.28;;;18.00;57.70;;;;;;5076484;28;43726;-60
2022/12/01 06:52:36;;;;;;;5.95;5.45;;;18.00;57.70;;;;;;5068784;28;43375;-60
2022/12/01 06:55:05;;;;;;;5.60;5.10;;;18.00;57.70;;;;;;5071242;28;43458;-60
2022/12/01 06:57:33;;;;;;;5.97;5.25;;;18.00;57.70;;;;;;5082104;27;44989;-60
2022/12/01 07:00:01;;;;;;;5.53;5.03;;;18.00;57.90;;;;;;5081483;28;44015;-60
2022/12/01 07:02:29;;;;;;;5.45;4.95;;;18.00;57.70;;;;;;5081844;27;43458;-60
2022/12/01 07:04:56;;;;;;;5.78;5.28;;;18.00;57.60;;;;;;5082227;27;43465;-60
2022/12/01 07:07:24;;;;;;;5.60;4.93;;;18.00;57.50;;;;;;5081800;27;44992;-60
2022/12/01 07:09:51;;;;;;;5.72;5.22;;;18.00;57.60;;;;;;5081217;27;43957;-60
2022/12/01 07:12:19;;;;;;;5.30;4.88;;;18.00;57.70;;;;;;5082848;27;43470;-60
2022/12/01 07:14:46;;;;;;;5.32;4.85;;;18.00;57.70;;;;;;5081251;27;43772;-60
2022/12/01 07:17:13;;;;;;;5.50;5.00;;;17.90;57.70;;;;;;5082175;27;44116;-60
2022/12/01 07:19:41;;;;;;;5.53;5.03;;;17.90;57.70;;;;;;5081373;27;43485;-60
2022/12/01 07:22:08;;;;;;;5.32;4.88;;;17.90;57.70;;;;;;5081906;27;43474;-60
2022/12/01 07:24:36;;;;;;;5.25;4.82;;;17.90;57.70;;;;;;5069192;28;43481;-60
2022/12/01 07:27:03;;;;;;;5.18;4.68;;;17.90;57.70;;;;;;5069521;27;44065;-60
2022/12/01 07:29:30;;;;;;;5.40;4.90;;;17.90;57.70;;;;;;5070673;27;43681;-60
2022/12/01 07:31:58;;;;;;;4.80;4.40;;;17.90;57.70;;;;;;5077672;27;43372;-60
2022/12/01 07:34:25;;;;;;;4.80;4.40;;;17.90;57.70;;;;;;5080483;27;43516;-60
2022/12/01 07:36:53;;;;;;;4.88;4.47;;;17.90;57.70;;;;;;5074570;27;44808;-60
2022/12/01 07:39:20;;;;;;;5.22;4.50;;;17.90;57.60;;;;;;5068699;28;43360;-60
2022/12/01 07:41:48;;;;;;;4.57;4.28;;;17.90;57.50;;;;;;5073634;28;43466;-60
2022/12/01 07:44:15;;;;;;;4.53;4.13;;;17.90;57.60;;;;;;5080781;27;43450;-60
2022/12/01 07:46:43;;;;;;;4.93;4.43;;;17.90;57.50;;;;;;5070773;27;44716;-60
2022/12/01 07:49:13;;;;;;;4.57;4.18;;;17.90;57.60;;;;;;5071036;27;43991;-60
2022/12/01 07:51:41;;;;;;;4.68;4.28;;;17.90;57.60;;;;;;5074908;28;43477;-60
2022/12/01 07:54:09;;;;;;;4.63;4.28;;;17.90;57.60;;;;;;5081626;27;43561;-60
2022/12/01 07:56:37;;;;;;;4.68;4.28;;;17.90;57.60;;;;;;5081032;27;45137;-60
2022/12/01 07:59:05;;;;;;;4.85;4.45;;;17.90;57.40;;;;;;5080954;27;43494;-60
2022/12/01 08:01:32;;;;;;;4.40;4.10;;;17.90;57.50;;;;;;5082133;27;43478;-60
2022/12/01 08:04:00;;;;;;;4.68;4.28;;;17.90;57.40;;;;;;5080508;27;43463;-60
2022/12/01 08:06:28;;;;;;;4.53;4.13;;;17.90;57.50;;;;;;5080773;27;43859;-60
2022/12/01 08:08:56;;;;;;;5.07;4.22;;;17.90;57.40;;;;;;5081054;27;43586;-60
2022/12/01 08:11:28;;;;;;;5.57;4.00;;;17.90;57.50;;;;;;5081784;27;43381;-60
2022/12/01 08:13:55;;;;;;;4.75;4.03;;;17.80;57.40;;;;;;5080858;27;43398;-60
2022/12/01 08:16:24;;;;;;;9.45;4.63;;;17.90;57.60;;;;;;5081663;27;44154;-61
2022/12/01 08:18:52;;;;;;;4.70;4.22;;;17.90;57.60;;;;;;5079868;27;43659;-60
2022/12/01 08:21:22;;;;;;;5.32;4.13;;;17.90;57.60;;;;;;5081442;27;43470;-60
2022/12/01 08:23:56;;;;;;;7.72;4.10;;;17.90;57.60;;;;;;5081020;27;43431;-60
2022/12/01 08:26:25;;;;;;;6.32;3.83;;;18.00;57.40;;;;;;5080532;27;44990;-60
2022/12/01 08:28:53;;;;;;;5.10;4.18;;;18.10;57.20;;;;;;5079175;28;43814;-60
2022/12/01 08:31:22;;;;;;;4.38;3.97;;;18.20;57.10;;;;;;5081421;27;43968;-60
2022/12/01 08:33:50;;;;;;;4.70;4.30;;;18.30;56.90;;;;;;5080301;27;43628;-60
2022/12/01 08:36:19;;;;;;;4.32;3.83;;;18.40;56.70;;;;;;5080667;27;44713;-60
2022/12/01 08:38:49;;;;;;;5.65;3.75;;;18.50;56.50;;;;;;5079486;27;43728;-60
2022/12/01 08:41:17;;;;;;;4.15;3.83;;;18.60;56.40;;;;;;5080875;27;43386;-60
2022/12/01 08:43:44;;;;;;;4.18;3.85;;;18.70;56.30;;;;;;5081186;27;43414;-61
2022/12/01 08:46:31;;;;;;;4.90;3.65;;;18.80;56.20;;;;;;5079938;28;45203;-60
2022/12/01 08:49:00;;;;;;;5.95;3.75;;;18.90;56.30;;;;;;5081043;27;43943;-60
2022/12/01 08:51:28;;;;;;;3.65;3.35;;;19.00;56.10;;;;;;5076982;27;43376;-61
2022/12/01 08:53:56;;;;;;;3.38;3.03;;;19.10;56.00;;;;;;5064295;28;43430;-60
2022/12/01 08:56:31;;;;;;;4.35;3.50;;;19.20;55.80;;;;;;5080874;28;43949;-61
2022/12/01 08:58:59;;;;;;;4.38;3.45;;;19.30;55.70;;;;;;5081350;27;43982;-60
2022/12/01 09:01:27;;;;;;;5.35;3.80;;;19.40;55.60;;;;;;5083836;27;43444;-60
2022/12/01 09:04:07;;;;;;;3.78;3.47;;;19.60;55.50;;;;;;5081933;28;43543;-60
2022/12/01 09:06:40;;;;;;;5.35;3.58;;;19.70;55.40;;;;;;5084290;27;44244;-60
2022/12/01 09:09:15;;;;;;;4.43;3.70;;;19.80;55.10;;;;;;5084294;27;43716;-60
2022/12/01 09:11:43;;;;;;;3.83;3.45;;;19.80;54.90;;;;;;5097510;27;43431;-60
2022/12/01 09:14:12;;;;;;;3.50;3.20;;;19.90;54.90;;;;;;5083162;27;43421;-60
2022/12/01 09:16:40;;;;;;;4.15;3.38;;;20.00;54.80;;;;;;5084414;27;43792;-60
2022/12/01 09:19:09;;;;;;;3.80;3.50;;;20.00;54.80;;;;;;5083705;28;43958;-60
2022/12/01 09:21:41;;;;;;;6.40;3.67;;;20.10;54.60;;;;;;5083652;27;43371;-60
2022/12/01 09:24:10;;;;;;;4.00;3.58;;;20.20;54.40;;;;;;5078843;27;43617;-60
2022/12/01 09:26:39;;;;;;;7.17;4.23;;;20.20;54.10;;;;;;5083961;28;44964;-60
2022/12/01 09:29:10;;;;;;;4.30;3.90;;;20.30;54.00;;;;;;5083174;27;43853;-60
2022/12/01 09:31:38;;;;;;;3.80;3.47;;;20.40;54.00;;;;;;5083833;27;43442;-60
2022/12/01 09:34:09;;;;;;;3.63;3.33;;;20.50;54.30;;;;;;5083508;27;43541;-62
2022/12/01 09:36:37;;;;;;;3.72;3.20;;;20.50;54.50;;;;;;5074638;28;44825;-62
2022/12/01 09:39:06;;;;;;;4.53;3.40;;;20.60;54.60;;;;;;5084260;27;43701;-61
2022/12/01 09:41:52;;;;;;;4.50;3.40;;;20.70;54.40;;;;;;5083353;27;43470;-61
2022/12/01 09:44:47;;;;;;;3.78;3.35;;;20.80;54.40;;;;;;5083427;27;43375;-62
2022/12/01 09:47:24;;;;;;;4.60;4.00;;;20.90;54.40;;;;;;5082997;27;44995;-61
2022/12/01 09:49:58;;;;;;;3.72;3.42;;;21.00;54.10;;;;;;5081553;28;43980;-61
2022/12/01 09:52:38;;;;;;;4.47;3.50;;;21.10;54.20;;;;;;5083730;27;43372;-61
2022/12/01 09:55:15;;;;;;;6.70;3.50;;;21.10;54.00;;;;;;5082985;27;43504;-60
2022/12/01 09:57:47;;;;;;;4.50;3.50;;;21.20;55.90;;;;;;5073615;27;43618;-59
2022/12/01 10:00:20;;;;;;;4.00;3.60;;;21.20;54.40;;;;;;5067633;28;43493;-59
2022/12/01 10:03:16;;;;;;;3.70;3.40;;;21.30;53.70;;;;;;5072698;28;43402;-57
2022/12/01 10:05:45;;;;;;;3.78;3.47;;;21.40;53.70;;;;;;5081547;28;43572;-59
2022/12/01 10:08:39;;;;;;;3.95;3.50;;;21.50;53.60;;;;;;5067081;28;43801;-60
2022/12/01 10:11:21;;;;;;;3.78;3.47;;;21.60;53.40;;;;;;5076660;27;44118;-57
2022/12/01 10:13:48;;;;;;;3.75;3.45;;;21.70;53.20;;;;;;5079848;28;43450;-59
2022/12/01 10:16:25;;;;;;;3.78;3.30;;;21.70;53.10;;;;;;5082980;27;43549;-58
2022/12/01 10:19:09;;;;;;;3.60;3.30;;;21.80;53.00;;;;;;5067789;27;44955;-60
2022/12/01 10:21:55;;;;;;;5.20;3.97;;;21.80;53.10;;;;;;5075034;28;43794;-60
2022/12/01 10:24:50;;;;;;;4.88;4.32;;;21.70;51.80;;;;;;5082346;27;43507;-60
2022/12/01 10:27:37;;;;;;;4.50;3.80;;;21.70;52.50;;;;;;5073309;28;43462;-60
2022/12/01 10:30:14;;;;;;;5.18;3.92;;;21.70;52.70;;;;;;5077449;28;43696;-59
2022/12/01 10:33:13;;;;;;;5.47;3.50;;;21.60;53.50;;;;;;5081609;27;43876;-60
2022/12/01 10:35:41;;;;;;;4.93;3.50;;;21.60;53.40;;;;;;5074437;28;43757;-59
2022/12/01 10:38:33;;;;;;;4.38;3.90;;;21.70;53.40;;;;;;5081765;27;43507;-59
2022/12/01 10:41:02;;;;;;;4.22;3.78;;;21.70;53.50;;;;;;5079650;28;43796;-59
2022/12/01 10:43:43;;;;;;;4.80;4.03;;;21.70;53.90;;;;;;5082346;27;43577;-60
2022/12/01 10:46:20;;;;;;;;;;;21.70;53.70;;;;;;5082307;27;43413;-60
2022/12/01 10:48:54;;;;;;;6.32;4.28;;;21.70;53.80;;;;;;5081242;28;43790;-59
2022/12/01 10:51:23;;;;;;;5.25;4.00;;;21.70;53.70;;;;;;5082462;27;44696;-59
2022/12/01 10:53:58;;;;;;;4.32;3.80;;;21.70;53.90;;;;;;5080131;28;43498;-59
2022/12/01 10:56:26;;;;;;;5.00;4.50;;;21.80;53.60;;;;;;5082860;28;43411;-59
2022/12/01 10:58:57;;;;;;;5.43;4.53;;;21.70;53.90;;;;;;5081410;27;43789;-59
2022/12/01 11:01:33;;;;;;;5.15;4.65;;;21.70;53.50;;;;;;5081718;28;43800;-58
2022/12/01 11:04:25;;;;;;;6.38;4.90;;;21.70;53.40;;;;;;5077081;28;44873;-59
2022/12/01 11:06:53;;;;;;;5.75;5.13;;;21.70;54.00;;;;;;5081993;27;43467;-59
2022/12/01 11:09:26;;;;;;;5.70;5.10;;;21.70;53.30;;;;;;5082164;27;43483;-59
2022/12/01 11:12:00;;;;;;;6.32;5.22;;;21.70;53.40;;;;;;5082592;27;44068;-59
2022/12/01 11:14:44;;;;;;;6.30;5.40;;;21.70;53.40;;;;;;5081092;28;43507;-59
2022/12/01 11:17:21;;;;;;;6.85;5.57;;;21.70;53.40;;;;;;5081581;28;43441;-59
2022/12/01 11:19:49;;;;;;;7.70;5.88;;;21.70;53.40;;;;;;5080693;28;43571;-59
2022/12/01 11:22:20;;;;;;;6.47;5.82;;;21.60;53.40;;;;;;5080764;27;43853;-58
2022/12/01 11:25:05;;;;;;;6.43;5.67;;;21.60;53.70;;;;;;5082360;27;43531;-59
2022/12/01 11:27:51;;;;;;;6.85;5.90;;;21.60;53.60;;;;;;5081336;28;43460;-59
2022/12/01 11:30:29;;;;;;;6.40;5.80;;;21.60;53.70;;;;;;5077090;28;43414;-59
2022/12/01 11:33:03;;;;;;;7.18;6.13;;;21.50;53.60;;;;;;5077591;27;43983;-59
2022/12/01 11:35:36;;;;;;;8.35;6.70;;;21.40;53.70;;;;;;5073221;27;43429;-58
2022/12/01 11:38:06;;;;;;;7.28;6.20;;;21.40;53.90;;;;;;5079956;27;43402;-58
2022/12/01 11:40:56;;;;;;;7.28;6.30;;;21.30;53.90;;;;;;5081778;27;43800;-59
2022/12/01 11:43:35;;;;;;;7.60;6.20;;;21.30;54.00;;;;;;5078837;27;43787;-58
2022/12/01 11:46:05;;;;;;;7.57;6.57;;;21.30;54.00;;;;;;5079807;28;43358;-59
2022/12/01 11:48:35;;;;;;;7.70;6.63;;;21.30;54.10;;;;;;5080625;27;43375;-59
2022/12/01 11:51:02;;;;;;;7.38;6.65;;;21.20;54.10;;;;;;5070825;28;43390;-59
2022/12/01 11:53:32;;;;;;;7.13;6.25;;;21.20;54.30;;;;;;5075604;27;44160;-59
2022/12/01 11:56:22;;;;;;;7.93;6.60;;;21.10;54.30;;;;;;5079054;28;43370;-58
2022/12/01 11:58:58;;;;;;;8.00;6.75;;;21.10;54.40;;;;;;5068231;27;43461;-58
2022/12/01 12:01:56;;;;;;;7.43;6.70;;;21.10;54.50;;;;;;5067300;28;43483;-58
2022/12/01 12:04:47;;;;;;;7.45;6.53;;;21.00;54.50;;;;;;5069637;28;44244;-58
2022/12/01 12:07:23;;;;;;;;;;;21.00;54.60;;;;;;5076808;28;44031;-58
2022/12/01 12:10:03;;;;;;;8.15;7.05;;;20.90;54.70;;;;;;5065408;27;43481;-58
2022/12/01 12:12:36;;;;;;;8.13;7.32;;;20.90;54.80;;;;;;5079624;27;43468;-58
2022/12/01 12:15:34;;;;;;;7.78;6.90;;;20.90;54.80;;;;;;5074540;28;43911;-58
2022/12/01 12:18:22;;;;;;;9.10;7.82;;;20.80;54.70;;;;;;5075389;27;43385;-58
2022/12/01 12:21:26;;;;;;;8.55;7.43;;;20.80;54.80;;;;;;5078879;27;43473;-59
2022/12/01 12:23:54;;;;;;;9.25;8.07;;;20.80;54.70;;;;;;5077495;28;43483;-59
2022/12/01 12:26:34;;;;;;;8.65;7.75;;;20.70;54.50;;;;;;5079089;28;44079;-59
2022/12/01 12:29:20;;;;;;;9.32;7.78;;;20.70;54.70;;;;;;5078251;28;43400;-59
2022/12/01 12:32:05;;;;;;;8.82;7.93;;;20.70;54.70;;;;;;5081456;27;43375;-59
2022/12/01 12:35:15;;;;;;;9.05;7.97;;;20.70;54.70;;;;;;5081166;27;43491;-59
2022/12/01 12:38:00;;;;;;;8.48;7.57;;;20.70;54.70;;;;;;5067023;27;43818;-58
2022/12/01 12:40:49;;;;;;;8.55;7.65;;;20.60;54.70;;;;;;5083199;28;44066;-59
2022/12/01 12:43:39;;;;;;;10.02;8.40;;;20.60;54.70;;;;;;5083514;28;43464;-58
2022/12/01 12:46:10;;;;;;;9.43;7.97;;;20.60;54.90;;;;;;5082901;28;43484;-59
2022/12/01 12:48:47;;;;;;;8.55;7.65;;;20.60;54.90;;;;;;5084173;27;44032;-59
2022/12/01 12:51:53;;;;;;;8.82;7.97;;;20.60;54.90;;;;;;5083572;28;43513;-59
2022/12/01 12:54:34;;;;;;;9.90;8.13;;;20.60;54.90;;;;;;5083313;28;43528;-60
2022/12/01 12:57:27;;;;;;;11.27;10.13;;;20.60;55.40;;;;;;5080249;28;43534;-60
2022/12/01 12:59:58;;;;;;;10.02;9.02;;;20.50;54.30;;;;;;5081422;27;43774;-59
2022/12/01 13:02:28;;;;;;;11.68;9.65;;;20.50;54.60;;;;;;5081072;27;43481;-59
2022/12/01 13:31:50;;;;;;;10.57;9.48;;;20.20;55.20;;;;;;4175588;28;10000159;-58
2022/12/01 13:34:31;;;;;;;10.13;8.98;;;20.20;55.20;;;;;;5041568;28;43465;-59
2022/12/01 13:36:59;;;;;;;11.25;9.75;;;20.20;55.20;;;;;;5041935;28;43517;-59
2022/12/01 13:39:34;;;;;;;11.35;10.15;;;20.20;55.20;;;;;;5041886;28;44904;-58
2022/12/01 13:42:23;;;;;;;10.98;9.88;;;20.20;55.60;;;;;;5046118;28;43413;-59
2022/12/01 13:44:58;;;;;;;10.57;9.48;;;20.20;55.30;;;;;;5043692;28;43472;-59